• Join FlightAware (Why Join?)
  • Login
  • US Flag 
12:29AM EDT


 

Airport Tracker/Info


-or-


 

Live Flight TrackerFlight Track Log ✈ OPT332 ✈ 20-Sep-2013 ✈ CYHZ - KPWK

Flight Track Log - Related Links

Times and Time Zones

All times are in EDT time to prevent confusion due to time zone crossing. See the OPT332 flight status page for this flight to view local times or setup timezone preferences in your user account.

Time Position Orientation Groundspeed Altitude Reporting Facility
EDT Latitude Longitude Course Direction KTS MPH feet Rate Location/Type
06:37AM 44.8833 -63.5000 270° West 160 184 1,400  Level Moncton Center
06:38AM 44.8833 -63.5667 270° West 200 230 5,200 3,660 Climbing Moncton Center
06:39AM 44.8500 -63.6500 241° Southwest 240 276 8,800 3,540 Climbing Moncton Center
06:40AM 44.8000 -63.7167 223° Southwest 250 288 12,300 3,240 Climbing Moncton Center
06:41AM 44.7667 -63.8000 241° Southwest 260 299 15,300 2,820 Climbing Moncton Center
06:42AM 44.7167 -63.9000 235° Southwest 270 311 18,000 2,580 Climbing Moncton Center
06:43AM 44.6667 -64.0000 235° Southwest 290 334 20,500 2,400 Climbing Moncton Center
06:44AM 44.6333 -64.0833 241° Southwest 290 334 22,800 2,100 Climbing Moncton Center
06:45AM 44.5833 -64.1833 235° Southwest 310 357 24,700 1,800 Climbing Moncton Center
06:46AM 44.5500 -64.3000 248° West 320 368 26,400 1,680 Climbing Moncton Center
06:47AM 44.5000 -64.4167 239° Southwest 330 380 28,100 1,620 Climbing Moncton Center
06:48AM 44.4500 -64.5333 239° Southwest 340 391 29,700 1,500 Climbing Moncton Center
06:49AM 44.4000 -64.6500 239° Southwest 360 414 31,200 1,740 Climbing Moncton Center
06:50AM 44.3500 -64.7667 239° Southwest 370 426 33,200 1,740 Climbing Moncton Center
06:51AM 44.3000 -64.9167 245° Southwest 370 426 34,700 1,500 Climbing Moncton Center
06:52AM 44.2500 -65.0333 239° Southwest 380 437 36,200 1,380 Climbing Moncton Center
06:53AM 44.2000 -65.1667 242° Southwest 380 437 37,500 1,320 Climbing Moncton Center
06:54AM 44.1333 -65.3000 235° Southwest 380 437 38,900 1,200 Climbing Moncton Center
06:55AM 44.0833 -65.4167 239° Southwest 380 437 39,900 900 Climbing Moncton Center
06:56AM 44.0333 -65.5333 239° Southwest 390 449 40,700 1,080 Climbing Moncton Center
06:57AM 43.9833 -65.6667 243° Southwest 380 437 42,100 1,140 Climbing Moncton Center
06:58AM 43.9333 -65.7833 239° Southwest 370 426 43,000 420 Climbing Moncton Center
06:59AM 43.8833 -65.9333 245° Southwest 380 437 43,000  Level Moncton Center
07:00AM 43.8167 -66.0667 235° Southwest 400 460 43,000  Level Moncton Center
07:01AM 43.8000 -66.2333 262° West 400 460 43,000  Level Moncton Center
07:02AM 43.7833 -66.3667 260° West 410 472 43,000  Level Moncton Center
07:03AM 43.7833 -66.5500 270° West 420 483 43,000  Level Moncton Center
07:04AM 43.7667 -66.6833 260° West 420 483 43,000  Level Moncton Center
07:05AM 43.7667 -66.8500 270° West 420 483 43,000 300 Level Moncton Center
07:06AM 43.7333 -67.0167 255° West 420 483 43,700 720 Climbing Moncton Center
07:06AM 43.7489 -67.1331 281° West 424 488 44,400 660 Climbing Boston Center
07:07AM 43.7453 -67.2858 268° West 410 472 45,000 300 Climbing Boston Center
07:08AM 43.7414 -67.4328 268° West 400 460 45,000  Level Boston Center
07:10AM 43.7397 -67.5883 269° West 400 460 45,000  Level Boston Center
07:11AM 43.7339 -67.7439 267° West 406 467 45,000  Level Boston Center
07:11AM 43.7294 -67.8967 268° West 406 467 45,000  Level Boston Center
07:12AM 43.7231 -68.0553 267° West 406 467 45,000  Level Boston Center
07:13AM 43.7183 -68.2050 268° West 406 467 45,000  Level Boston Center
07:15AM 43.7117 -68.3608 267° West 406 467 45,000  Level Boston Center
07:16AM 43.7086 -68.5133 268° West 406 467 45,000  Level Boston Center
07:16AM 43.7036 -68.6775 268° West 406 467 45,000  Level Boston Center
07:17AM 43.6981 -68.8300 267° West 406 467 45,000  Level Boston Center
07:18AM 43.6903 -68.9828 266° West 406 467 45,000  Level Boston Center
07:20AM 43.6844 -69.1353 267° West 406 467 45,000  Level Boston Center
07:21AM 43.6783 -69.2850 267° West 406 467 45,000  Level Boston Center
07:22AM 43.6697 -69.4375 266° West 406 467 45,000  Level Boston Center
07:22AM 43.6633 -69.5900 267° West 406 467 45,000  Level Boston Center
07:24AM 43.6544 -69.7453 266° West 406 467 45,000  Level Boston Center
07:25AM 43.6475 -69.8978 266° West 406 467 45,000  Level Boston Center
07:26AM 43.6425 -70.0500 267° West 406 467 45,000  Level Boston Center
07:27AM 43.6394 -70.1994 268° West 406 467 45,000  Level Boston Center
07:28AM 43.6297 -70.3519 265° West 406 467 45,000  Level Boston Center
07:29AM 43.6219 -70.5069 266° West 406 467 45,000  Level Boston Center
07:30AM 43.6139 -70.6592 266° West 406 467 45,000  Level Boston Center
07:31AM 43.6022 -70.8431 265° West 406 467 45,000  Level Boston Center
07:32AM 43.5939 -71.0011 266° West 406 467 45,000  Level Boston Center
07:33AM 43.5853 -71.1503 265° West 406 467 45,000  Level Boston Center
07:34AM 43.5703 -71.3083 263° West 406 467 45,000  Level Boston Center
07:35AM 43.5611 -71.4603 265° West 406 467 45,000  Level Boston Center
07:36AM 43.5519 -71.6181 265° West 406 467 45,000  Level Boston Center
07:37AM 43.5447 -71.7728 266° West 406 467 45,000  Level Boston Center
07:38AM 43.5331 -71.9275 264° West 406 467 45,000  Level Boston Center
07:39AM 43.5211 -72.0822 264° West 411 473 45,000  Level Boston Center
07:40AM 43.5111 -72.2397 265° West 411 473 45,000  Level Boston Center
07:41AM 43.5008 -72.3942 265° West 406 467 45,000  Level Boston Center
07:42AM 43.4883 -72.5489 264° West 406 467 45,000  Level Boston Center
07:43AM 43.4797 -72.7033 266° West 406 467 45,000  Level Boston Center
07:44AM 43.4667 -72.8578 263° West 406 467 45,000  Level Boston Center
07:45AM 43.4578 -72.9836 264° West 412 474 45,000  Level Boston Center
07:46AM 43.4403 -73.1492 262° West 406 467 45,000  Level Boston Center
07:47AM 43.4267 -73.3064 263° West 406 467 45,000  Level Boston Center
07:48AM 43.4150 -73.4633 264° West 406 467 45,000  Level Boston Center
07:49AM 43.4031 -73.6175 264° West 406 467 45,000  Level Boston Center
07:50AM 43.3886 -73.7914 264° West 406 467 45,000  Level Boston Center
07:51AM 43.3761 -73.9456 264° West 406 467 45,000  Level Boston Center
07:52AM 43.3636 -74.0994 264° West 406 467 45,000  Level Boston Center
07:53AM 43.3489 -74.2558 263° West 406 467 45,000  Level Boston Center
07:54AM 43.3361 -74.3925 263° West 406 467 45,000  Level Boston Center
07:55AM 43.3231 -74.5492 264° West 411 473 45,000  Level Boston Center
07:56AM 43.3075 -74.7028 262° West 411 473 45,000  Level Boston Center
07:57AM 43.2939 -74.8564 263° West 411 473 45,000  Level Boston Center
07:58AM 43.2781 -75.0069 262° West 406 467 45,000  Level Boston Center
07:59AM 43.2619 -75.1658 262° West 411 473 45,000  Level Boston Center
08:00AM 43.2475 -75.3250 263° West 419 482 45,000  Level Boston Center
08:01AM 43.2497 -75.4817 271° West 419 482 45,000  Level Boston Center
08:02AM 43.2497 -75.6358 270° West 413 475 45,000  Level Boston Center
08:03AM 43.2517 -75.7842 271° West 408 470 45,000  Level Boston Center
08:04AM 43.2514 -75.9381 270° West 403 464 45,000  Level Boston Center
08:06AM 43.2494 -76.2403 270° West 398 458 45,000  Level Cleveland Center
08:07AM 43.2481 -76.3933 269° West 399 459 45,000  Level Cleveland Center
08:08AM 43.2469 -76.5439 269° West 398 458 45,000  Level Cleveland Center
08:09AM 43.2458 -76.6933 269° West 394 453 45,000  Level Cleveland Center
08:10AM 43.2442 -76.8447 269° West 396 456 45,000  Level Cleveland Center
08:11AM 43.2428 -76.9950 269° West 396 456 45,000  Level Cleveland Center
08:12AM 43.2406 -77.1578 269° West 397 457 45,000  Level Cleveland Center
08:13AM 43.2386 -77.3097 269° West 400 460 45,000  Level Cleveland Center
08:14AM 43.2364 -77.4922 269° West 402 463 45,000  Level Cleveland Center
08:15AM 43.2339 -77.6442 269° West 402 463 45,000  Level Cleveland Center
08:16AM 43.2311 -77.7972 269° West 403 464 45,000  Level Cleveland Center
08:17AM 43.2283 -77.9508 269° West 406 467 45,000  Level Cleveland Center
08:18AM 43.2247 -78.1050 268° West 407 468 45,000  Level Cleveland Center
08:19AM 43.2206 -78.2892 268° West 406 467 45,000  Level Cleveland Center
08:20AM 43.2178 -78.4433 269° West 407 468 45,000  Level Cleveland Center
08:21AM 43.2122 -78.5992 267° West 412 474 45,000  Level Cleveland Center
08:22AM 43.2083 -78.7528 268° West 406 467 45,000  Level Cleveland Center
08:23AM 43.2047 -78.9058 268° West 403 464 45,000  Level Cleveland Center
08:24AM 43.2003 -79.0589 268° West 403 464 45,000  Level Cleveland Center
08:25AM 43.1953 -79.2411 268° West 402 463 45,000  Level Cleveland Center
08:26AM 43.1903 -79.3958 268° West 405 466 45,000  Level Cleveland Center
08:27AM 43.1858 -79.5494 268° West 406 467 45,000  Level Cleveland Center
08:28AM 43.1806 -79.7039 267° West 407 468 45,000  Level Cleveland Center
08:29AM 43.1711 -79.8592 265° West 410 472 45,000  Level Cleveland Center
08:30AM 43.1658 -80.0356 268° West 410 472 45,000  Level Cleveland Center
08:31AM 43.1622 -80.1969 268° West 413 475 45,000  Level Cleveland Center
08:32AM 43.1558 -80.3503 267° West 408 470 45,000  Level Cleveland Center
08:33AM 43.1497 -80.5056 267° West 406 467 45,000  Level Cleveland Center
08:35AM 43.1431 -80.6583 267° West 401 461 45,000  Level Cleveland Center
08:36AM 43.1350 -80.8111 266° West 401 461 45,000  Level Cleveland Center
08:37AM 43.1283 -80.9653 267° West 402 463 45,000  Level Cleveland Center
08:38AM 43.1197 -81.1444 266° West 402 463 45,000  Level Cleveland Center
08:39AM 43.1131 -81.2956 267° West 396 456 45,000  Level Cleveland Center
08:40AM 43.1042 -81.4544 266° West 394 453 45,000  Level Cleveland Center
08:41AM 43.0964 -81.6036 266° West 391 450 45,000  Level Cleveland Center
08:42AM 43.0886 -81.7508 266° West 389 448 45,000  Level Cleveland Center
08:43AM 43.0806 -81.8972 266° West 388 447 45,000  Level Cleveland Center
08:44AM 43.0500 -82.0000 248° West 390 449 45,000  Level Toronto Center
08:45AM 43.0500 -82.1667 270° West 390 449 45,000  Level Toronto Center
08:46AM 43.0500 -82.3000 270° West 380 437 45,000  Level Toronto Center
08:47AM 43.0333 -82.4333 260° West 380 437 45,000  Level Toronto Center
08:48AM 43.0333 -82.6000 270° West 380 437 45,000  Level Toronto Center
08:49AM 43.0167 -82.7333 260° West 380 437 45,000  Level Toronto Center
08:50AM 43.0167 -82.8667 270° West 380 437 45,000  Level Toronto Center
08:51AM 43.0000 -83.0333 262° West 380 437 45,000  Level Toronto Center
08:52AM 43.0000 -83.1667 270° West 380 437 45,000  Level Toronto Center
08:52AM 43.0022 -83.2150 274° West 377 434 45,000  Level Cleveland Center
08:53AM 42.9919 -83.3861 265° West 377 434 45,000 -120 Level Cleveland Center
08:54AM 42.9822 -83.5272 265° West 377 434 44,800 -1,140 Descending Cleveland Center
08:55AM 42.9700 -83.6781 264° West 417 480 42,700 -1,800 Descending Cleveland Center
08:56AM 42.9525 -83.8150 260° West 376 433 41,100 -1,800 Descending Cleveland Center
08:57AM 42.9289 -83.9319 255° West 328 377 39,000 -2,220 Descending Cleveland Center
08:58AM 42.8958 -84.0953 255° West 373 429 36,600 -2,220 Descending Cleveland Center
08:59AM 42.8669 -84.2367 254° West 387 445 34,500 -2,160 Descending Cleveland Center
09:00AM 42.8347 -84.3981 255° West 406 467 32,200 -2,220 Descending Cleveland Center
09:01AM 42.8031 -84.5500 254° West 412 474 30,100 -1,140 Descending Chicago Center
09:02AM 42.7714 -84.6975 254° West 409 471 30,000 -60 Descending Chicago Center
09:03AM 42.7406 -84.8450 254° West 406 467 30,000  Level Chicago Center
09:04AM 42.7086 -84.9914 254° West 405 466 30,000 -180 Level Chicago Center
09:05AM 42.6772 -85.1397 254° West 407 468 29,700 -900 Descending Chicago Center
09:06AM 42.6450 -85.2906 254° West 412 474 28,200 -1,560 Descending Chicago Center
09:07AM 42.6089 -85.4586 254° West 413 475 26,600 -1,500 Descending Chicago Center
09:09AM 42.5797 -85.5914 253° West 416 479 25,200 -1,560 Descending Chicago Center
09:10AM 42.5403 -85.7711 253° West 414 476 23,400 -1,620 Descending Chicago Center
09:11AM 42.5067 -85.9192 253° West 411 473 21,900 -1,500 Descending Chicago Center
09:12AM 42.4750 -86.0647 254° West 403 464 20,400 -960 Descending Chicago Center
09:13AM 42.4619 -86.2094 263° West 394 453 20,000 -780 Descending Chicago Center
09:14AM 42.4533 -86.3494 265° West 375 432 18,800 -1,740 Descending Chicago Center
09:15AM 42.4464 -86.4878 266° West 369 425 16,500 -2,280 Descending Chicago Center
09:16AM 42.4397 -86.6189 266° West 356 410 14,200 -2,340 Descending Chicago Center
09:17AM 42.4325 -86.7336 265° West 315 362 11,800 -2,040 Descending Chicago Center
09:18AM 42.4250 -86.8614 265° West 288 331 10,100 -840 Descending Chicago Center
09:19AM 42.4197 -86.9628 266° West 275 316 10,100 -660 Level Chicago Center
09:20AM 42.4136 -87.0600 265° West 263 303 8,800 -1,800 Descending Chicago Center
09:21AM 42.4078 -87.1508 265° West 247 284 6,500 -2,280 Descending Chicago Center
09:22AM 42.4025 -87.2406 265° West 242 278 4,200 -1,740 Descending Chicago Center
09:23AM 42.3919 -87.3378 262° West 239 275 3,000 -600 Descending Chicago Center
09:24AM 42.3753 -87.4275 256° West 231 266 3,000  Level Chicago Center
09:25AM 42.3611 -87.5075 257° West 225 259 3,000  Level Chicago Center
09:26AM 42.3550 -87.5808 264° West 207 238 3,000  Level Chicago Center
09:27AM 42.3522 -87.6378 266° West 173 199 3,000  Level Chicago Center
09:28AM 42.3506 -87.6947 268° West 158 182 3,000  Level Chicago Center
09:29AM 42.3492 -87.7528 268° West 155 178 3,000  Level Chicago Center
09:30AM 42.3481 -87.8228 269° West 155 178 3,000  Level Chicago Center
09:31AM 42.3450 -87.8786 266° West 154 177 3,000  Level Chicago Center
09:32AM 42.3169 -87.9208 228° Southwest 157 181 3,000 -300 Level Chicago Center
09:33AM 42.2828 -87.9608 221° Southwest 160 184 2,500 -300 Descending Chicago Center
09:34AM 42.2381 -87.9583 178° South 167 192 2,400 -300 Descending Chicago Center
09:35AM 42.1900 -87.9458 169° South 155 178 2,000 -300 Descending Chicago Center
09:36AM 42.1600 -87.9294 158° South 147 169 1,800 -240 Descending Chicago Center
09:39AM 42.1143 -87.9015 166° South  Level Estimated
09:46AM 42.1143 -87.9015 166° South  Level Estimated
09:47AM 42.1143 -87.9015 166° South  Level Estimated
09:48AM 42.1143 -87.9015 166° South  Level Estimated